sensor_id;sensor_type;location;lat;lon;timestamp;temperature;humidity
22321;DHT22;11328;53.928;18.522;2023-08-24T00:02:02;20.50;99.90
22321;DHT22;11328;53.928;18.522;2023-08-24T00:04:29;20.50;99.90
22321;DHT22;11328;53.928;18.522;2023-08-24T00:06:55;20.50;99.90
22321;DHT22;11328;53.928;18.522;2023-08-24T00:09:23;20.50;99.90
22321;DHT22;11328;53.928;18.522;2023-08-24T00:11:50;20.50;99.90
22321;DHT22;11328;53.928;18.522;2023-08-24T00:14:17;20.50;99.90
22321;DHT22;11328;53.928;18.522;2023-08-24T00:16:43;20.50;99.90
22321;DHT22;11328;53.928;18.522;2023-08-24T00:19:11;20.60;99.90
22321;DHT22;11328;53.928;18.522;2023-08-24T00:21:38;20.50;99.90
22321;DHT22;11328;53.928;18.522;2023-08-24T00:24:05;20.50;99.90
22321;DHT22;11328;53.928;18.522;2023-08-24T00:26:32;20.50;99.90
22321;DHT22;11328;53.928;18.522;2023-08-24T00:28:59;20.50;99.90
22321;DHT22;11328;53.928;18.522;2023-08-24T00:31:26;20.50;99.90
22321;DHT22;11328;53.928;18.522;2023-08-24T00:33:53;20.40;99.90
22321;DHT22;11328;53.928;18.522;2023-08-24T00:36:21;20.30;99.90
22321;DHT22;11328;53.928;18.522;2023-08-24T00:38:50;20.20;99.90
22321;DHT22;11328;53.928;18.522;2023-08-24T00:41:18;20.20;99.90
22321;DHT22;11328;53.928;18.522;2023-08-24T00:43:45;20.10;99.90
22321;DHT22;11328;53.928;18.522;2023-08-24T00:46:13;20.00;99.90
22321;DHT22;11328;53.928;18.522;2023-08-24T00:48:40;20.00;99.90
22321;DHT22;11328;53.928;18.522;2023-08-24T00:51:07;20.00;99.90
22321;DHT22;11328;53.928;18.522;2023-08-24T00:53:35;19.90;99.90
22321;DHT22;11328;53.928;18.522;2023-08-24T00:56:04;19.80;99.90
22321;DHT22;11328;53.928;18.522;2023-08-24T00:58:32;19.80;99.90
22321;DHT22;11328;53.928;18.522;2023-08-24T01:01:00;19.80;99.90
22321;DHT22;11328;53.928;18.522;2023-08-24T01:03:27;19.90;99.90
22321;DHT22;11328;53.928;18.522;2023-08-24T01:05:54;19.80;99.90
22321;DHT22;11328;53.928;18.522;2023-08-24T01:08:21;19.70;99.90
22321;DHT22;11328;53.928;18.522;2023-08-24T01:14:03;19.60;99.90
22321;DHT22;11328;53.928;18.522;2023-08-24T01:16:38;19.60;99.90
22321;DHT22;11328;53.928;18.522;2023-08-24T01:19:39;19.50;99.90
22321;DHT22;11328;53.928;18.522;2023-08-24T01:25:12;19.30;99.90
22321;DHT22;11328;53.928;18.522;2023-08-24T01:27:43;19.30;99.90
22321;DHT22;11328;53.928;18.522;2023-08-24T01:30:11;19.30;99.90
22321;DHT22;11328;53.928;18.522;2023-08-24T01:32:39;19.20;99.90
22321;DHT22;11328;53.928;18.522;2023-08-24T01:35:08;19.30;99.90
22321;DHT22;11328;53.928;18.522;2023-08-24T01:37:36;19.20;99.90
22321;DHT22;11328;53.928;18.522;2023-08-24T01:40:13;19.20;99.90
22321;DHT22;11328;53.928;18.522;2023-08-24T01:43:00;19.10;99.90
22321;DHT22;11328;53.928;18.522;2023-08-24T01:45:31;19.00;99.90
22321;DHT22;11328;53.928;18.522;2023-08-24T01:48:01;19.00;99.90
22321;DHT22;11328;53.928;18.522;2023-08-24T01:50:31;18.90;99.90
22321;DHT22;11328;53.928;18.522;2023-08-24T01:53:00;18.90;99.90
22321;DHT22;11328;53.928;18.522;2023-08-24T01:55:27;18.90;99.90
22321;DHT22;11328;53.928;18.522;2023-08-24T01:57:55;18.90;99.90
22321;DHT22;11328;53.928;18.522;2023-08-24T02:00:23;18.90;99.90
22321;DHT22;11328;53.928;18.522;2023-08-24T02:02:50;18.90;99.90
22321;DHT22;11328;53.928;18.522;2023-08-24T02:05:17;18.90;99.90
22321;DHT22;11328;53.928;18.522;2023-08-24T02:07:44;18.90;99.90
22321;DHT22;11328;53.928;18.522;2023-08-24T02:10:11;18.90;99.90
22321;DHT22;11328;53.928;18.522;2023-08-24T02:12:38;18.90;99.90
22321;DHT22;11328;53.928;18.522;2023-08-24T02:15:05;18.80;99.90
22321;DHT22;11328;53.928;18.522;2023-08-24T02:17:32;18.80;99.90
22321;DHT22;11328;53.928;18.522;2023-08-24T02:20:00;18.70;99.90
22321;DHT22;11328;53.928;18.522;2023-08-24T02:22:29;18.70;99.90
22321;DHT22;11328;53.928;18.522;2023-08-24T02:24:57;18.70;99.90
22321;DHT22;11328;53.928;18.522;2023-08-24T02:27:24;18.80;99.90
22321;DHT22;11328;53.928;18.522;2023-08-24T02:29:51;18.70;99.90
22321;DHT22;11328;53.928;18.522;2023-08-24T02:32:17;18.70;99.90
22321;DHT22;11328;53.928;18.522;2023-08-24T02:34:44;18.70;99.90
22321;DHT22;11328;53.928;18.522;2023-08-24T02:37:11;18.70;99.90
22321;DHT22;11328;53.928;18.522;2023-08-24T02:39:38;18.70;99.90
22321;DHT22;11328;53.928;18.522;2023-08-24T02:42:05;18.70;99.90
22321;DHT22;11328;53.928;18.522;2023-08-24T02:44:32;18.70;99.90
22321;DHT22;11328;53.928;18.522;2023-08-24T02:46:59;18.70;99.90
22321;DHT22;11328;53.928;18.522;2023-08-24T02:49:26;18.70;99.90
22321;DHT22;11328;53.928;18.522;2023-08-24T02:51:53;18.70;99.90
22321;DHT22;11328;53.928;18.522;2023-08-24T02:54:20;18.70;99.90
22321;DHT22;11328;53.928;18.522;2023-08-24T02:56:47;18.70;99.90
22321;DHT22;11328;53.928;18.522;2023-08-24T02:59:14;18.70;99.90
22321;DHT22;11328;53.928;18.522;2023-08-24T03:01:41;18.70;99.90
22321;DHT22;11328;53.928;18.522;2023-08-24T03:04:08;18.70;99.90
22321;DHT22;11328;53.928;18.522;2023-08-24T03:06:35;18.70;99.90
22321;DHT22;11328;53.928;18.522;2023-08-24T03:09:02;18.70;99.90
22321;DHT22;11328;53.928;18.522;2023-08-24T03:11:31;18.80;99.90
22321;DHT22;11328;53.928;18.522;2023-08-24T03:13:58;18.70;99.90
22321;DHT22;11328;53.928;18.522;2023-08-24T03:16:26;18.80;99.90
22321;DHT22;11328;53.928;18.522;2023-08-24T03:18:53;18.80;99.90
22321;DHT22;11328;53.928;18.522;2023-08-24T03:21:20;18.80;99.90
22321;DHT22;11328;53.928;18.522;2023-08-24T03:23:47;18.80;99.90
22321;DHT22;11328;53.928;18.522;2023-08-24T03:26:14;18.70;99.90
22321;DHT22;11328;53.928;18.522;2023-08-24T03:28:43;18.80;99.90
22321;DHT22;11328;53.928;18.522;2023-08-24T03:31:10;18.80;99.90
22321;DHT22;11328;53.928;18.522;2023-08-24T03:33:37;18.80;99.90
22321;DHT22;11328;53.928;18.522;2023-08-24T03:36:04;18.70;99.90
22321;DHT22;11328;53.928;18.522;2023-08-24T03:38:31;18.70;99.90
22321;DHT22;11328;53.928;18.522;2023-08-24T03:41:02;18.70;99.90
22321;DHT22;11328;53.928;18.522;2023-08-24T03:43:32;18.80;99.90
22321;DHT22;11328;53.928;18.522;2023-08-24T03:46:01;18.80;99.90
22321;DHT22;11328;53.928;18.522;2023-08-24T03:48:29;18.70;99.90
22321;DHT22;11328;53.928;18.522;2023-08-24T03:50:57;18.80;99.90
22321;DHT22;11328;53.928;18.522;2023-08-24T03:53:24;18.70;99.90
22321;DHT22;11328;53.928;18.522;2023-08-24T03:55:52;18.70;99.90
22321;DHT22;11328;53.928;18.522;2023-08-24T03:58:20;18.70;99.90
22321;DHT22;11328;53.928;18.522;2023-08-24T04:00:47;18.70;99.90
22321;DHT22;11328;53.928;18.522;2023-08-24T04:03:14;18.70;99.90
22321;DHT22;11328;53.928;18.522;2023-08-24T04:05:41;18.70;99.90
22321;DHT22;11328;53.928;18.522;2023-08-24T04:08:08;18.70;99.90
22321;DHT22;11328;53.928;18.522;2023-08-24T04:10:35;18.70;99.90
22321;DHT22;11328;53.928;18.522;2023-08-24T04:13:04;18.70;99.90
22321;DHT22;11328;53.928;18.522;2023-08-24T04:15:31;18.70;99.90
22321;DHT22;11328;53.928;18.522;2023-08-24T04:17:58;18.70;99.90
22321;DHT22;11328;53.928;18.522;2023-08-24T04:20:25;18.70;99.90
22321;DHT22;11328;53.928;18.522;2023-08-24T04:22:52;18.80;99.90
22321;DHT22;11328;53.928;18.522;2023-08-24T04:25:19;18.80;99.90
22321;DHT22;11328;53.928;18.522;2023-08-24T04:27:46;18.80;99.90
22321;DHT22;11328;53.928;18.522;2023-08-24T04:30:13;18.80;99.90
22321;DHT22;11328;53.928;18.522;2023-08-24T04:32:40;18.80;99.90
22321;DHT22;11328;53.928;18.522;2023-08-24T04:35:07;18.90;99.90
22321;DHT22;11328;53.928;18.522;2023-08-24T04:37:35;18.90;99.90
22321;DHT22;11328;53.928;18.522;2023-08-24T04:40:02;18.80;99.90
22321;DHT22;11328;53.928;18.522;2023-08-24T04:42:30;18.80;99.90
22321;DHT22;11328;53.928;18.522;2023-08-24T04:44:57;18.90;99.90
22321;DHT22;11328;53.928;18.522;2023-08-24T04:47:26;18.90;99.90
22321;DHT22;11328;53.928;18.522;2023-08-24T04:49:53;19.00;99.90
22321;DHT22;11328;53.928;18.522;2023-08-24T04:52:20;19.00;99.90
22321;DHT22;11328;53.928;18.522;2023-08-24T04:54:47;19.00;99.90
22321;DHT22;11328;53.928;18.522;2023-08-24T04:57:14;19.10;99.90
22321;DHT22;11328;53.928;18.522;2023-08-24T04:59:43;19.00;99.90
22321;DHT22;11328;53.928;18.522;2023-08-24T05:02:10;19.10;99.90
22321;DHT22;11328;53.928;18.522;2023-08-24T05:04:37;19.20;99.90
22321;DHT22;11328;53.928;18.522;2023-08-24T05:07:04;19.20;99.90
22321;DHT22;11328;53.928;18.522;2023-08-24T05:09:31;19.20;99.90
22321;DHT22;11328;53.928;18.522;2023-08-24T05:11:58;19.20;99.90
22321;DHT22;11328;53.928;18.522;2023-08-24T05:14:25;19.20;99.90
22321;DHT22;11328;53.928;18.522;2023-08-24T05:16:52;19.20;99.90
22321;DHT22;11328;53.928;18.522;2023-08-24T05:19:19;19.20;99.90
22321;DHT22;11328;53.928;18.522;2023-08-24T05:21:46;19.30;99.90
22321;DHT22;11328;53.928;18.522;2023-08-24T05:24:13;19.40;99.90
22321;DHT22;11328;53.928;18.522;2023-08-24T05:26:40;19.30;99.90
22321;DHT22;11328;53.928;18.522;2023-08-24T05:29:07;19.40;99.90
22321;DHT22;11328;53.928;18.522;2023-08-24T05:31:34;19.50;99.90
22321;DHT22;11328;53.928;18.522;2023-08-24T05:34:01;19.40;99.90
22321;DHT22;11328;53.928;18.522;2023-08-24T05:36:28;19.40;99.90
22321;DHT22;11328;53.928;18.522;2023-08-24T05:38:55;19.40;99.90
22321;DHT22;11328;53.928;18.522;2023-08-24T05:41:31;19.40;99.90
22321;DHT22;11328;53.928;18.522;2023-08-24T05:43:58;19.40;99.90
22321;DHT22;11328;53.928;18.522;2023-08-24T05:46:25;19.40;99.90
22321;DHT22;11328;53.928;18.522;2023-08-24T05:48:52;19.40;99.90
22321;DHT22;11328;53.928;18.522;2023-08-24T05:51:19;19.50;99.90
22321;DHT22;11328;53.928;18.522;2023-08-24T05:53:47;19.60;99.90
22321;DHT22;11328;53.928;18.522;2023-08-24T05:56:14;19.70;99.90
22321;DHT22;11328;53.928;18.522;2023-08-24T05:58:41;19.70;99.90
22321;DHT22;11328;53.928;18.522;2023-08-24T06:01:08;19.80;99.90
22321;DHT22;11328;53.928;18.522;2023-08-24T06:03:35;19.90;99.90
22321;DHT22;11328;53.928;18.522;2023-08-24T06:06:03;20.00;99.90
22321;DHT22;11328;53.928;18.522;2023-08-24T06:08:31;20.00;99.90
22321;DHT22;11328;53.928;18.522;2023-08-24T06:10:58;19.90;99.90
22321;DHT22;11328;53.928;18.522;2023-08-24T06:13:25;20.00;99.90
22321;DHT22;11328;53.928;18.522;2023-08-24T06:15:53;20.00;99.90
22321;DHT22;11328;53.928;18.522;2023-08-24T06:18:23;20.10;99.90
22321;DHT22;11328;53.928;18.522;2023-08-24T06:20:50;20.20;99.90
22321;DHT22;11328;53.928;18.522;2023-08-24T06:23:17;20.20;99.90
22321;DHT22;11328;53.928;18.522;2023-08-24T06:25:45;20.30;99.90
22321;DHT22;11328;53.928;18.522;2023-08-24T06:28:13;20.30;99.90
22321;DHT22;11328;53.928;18.522;2023-08-24T06:30:41;20.30;99.90
22321;DHT22;11328;53.928;18.522;2023-08-24T06:33:09;20.30;99.90
22321;DHT22;11328;53.928;18.522;2023-08-24T06:35:40;20.30;99.90
22321;DHT22;11328;53.928;18.522;2023-08-24T06:38:07;20.40;99.90
22321;DHT22;11328;53.928;18.522;2023-08-24T06:40:34;20.50;99.90
22321;DHT22;11328;53.928;18.522;2023-08-24T06:43:01;20.50;99.90
22321;DHT22;11328;53.928;18.522;2023-08-24T06:45:28;20.60;99.90
22321;DHT22;11328;53.928;18.522;2023-08-24T06:47:55;20.80;99.90
22321;DHT22;11328;53.928;18.522;2023-08-24T06:50:22;20.70;99.90
22321;DHT22;11328;53.928;18.522;2023-08-24T06:52:49;20.80;99.90
22321;DHT22;11328;53.928;18.522;2023-08-24T06:55:16;20.90;99.90
22321;DHT22;11328;53.928;18.522;2023-08-24T06:57:48;21.00;99.90
22321;DHT22;11328;53.928;18.522;2023-08-24T07:00:19;21.10;99.90
22321;DHT22;11328;53.928;18.522;2023-08-24T07:02:50;21.10;99.90
22321;DHT22;11328;53.928;18.522;2023-08-24T07:05:17;21.20;99.90
22321;DHT22;11328;53.928;18.522;2023-08-24T07:07:47;21.20;99.90
22321;DHT22;11328;53.928;18.522;2023-08-24T07:10:17;21.20;99.90
22321;DHT22;11328;53.928;18.522;2023-08-24T07:12:44;21.20;99.90
22321;DHT22;11328;53.928;18.522;2023-08-24T07:15:12;21.30;99.90
22321;DHT22;11328;53.928;18.522;2023-08-24T07:17:40;21.30;99.90
22321;DHT22;11328;53.928;18.522;2023-08-24T07:20:08;21.30;99.90
22321;DHT22;11328;53.928;18.522;2023-08-24T07:22:35;21.30;99.90
22321;DHT22;11328;53.928;18.522;2023-08-24T07:25:03;21.30;99.90
22321;DHT22;11328;53.928;18.522;2023-08-24T07:27:32;21.30;99.90
22321;DHT22;11328;53.928;18.522;2023-08-24T07:30:01;21.40;99.90
22321;DHT22;11328;53.928;18.522;2023-08-24T07:32:56;21.50;99.90
22321;DHT22;11328;53.928;18.522;2023-08-24T07:35:23;21.60;99.90
22321;DHT22;11328;53.928;18.522;2023-08-24T07:37:52;21.60;99.90
22321;DHT22;11328;53.928;18.522;2023-08-24T07:40:19;21.80;99.90
22321;DHT22;11328;53.928;18.522;2023-08-24T07:42:48;22.00;99.90
22321;DHT22;11328;53.928;18.522;2023-08-24T07:45:17;22.30;99.90
22321;DHT22;11328;53.928;18.522;2023-08-24T07:47:45;22.40;99.90
22321;DHT22;11328;53.928;18.522;2023-08-24T07:50:12;22.60;99.90
22321;DHT22;11328;53.928;18.522;2023-08-24T07:52:39;22.80;99.90
22321;DHT22;11328;53.928;18.522;2023-08-24T07:55:07;22.70;99.90
22321;DHT22;11328;53.928;18.522;2023-08-24T07:57:36;22.70;99.90
22321;DHT22;11328;53.928;18.522;2023-08-24T08:00:04;22.70;99.90
22321;DHT22;11328;53.928;18.522;2023-08-24T08:02:36;22.80;99.90
22321;DHT22;11328;53.928;18.522;2023-08-24T08:05:04;23.00;99.90
22321;DHT22;11328;53.928;18.522;2023-08-24T08:07:34;23.10;99.90
22321;DHT22;11328;53.928;18.522;2023-08-24T08:10:01;23.20;99.90
22321;DHT22;11328;53.928;18.522;2023-08-24T08:12:28;23.30;99.90
22321;DHT22;11328;53.928;18.522;2023-08-24T08:14:58;23.40;99.90
22321;DHT22;11328;53.928;18.522;2023-08-24T08:17:26;23.60;99.90
22321;DHT22;11328;53.928;18.522;2023-08-24T08:19:57;23.70;99.90
22321;DHT22;11328;53.928;18.522;2023-08-24T08:22:25;24.00;99.90
22321;DHT22;11328;53.928;18.522;2023-08-24T08:24:52;24.20;99.90
22321;DHT22;11328;53.928;18.522;2023-08-24T08:27:23;24.10;99.90
22321;DHT22;11328;53.928;18.522;2023-08-24T08:29:50;24.20;99.90
22321;DHT22;11328;53.928;18.522;2023-08-24T08:32:17;24.20;99.90
22321;DHT22;11328;53.928;18.522;2023-08-24T08:34:44;23.90;99.90
22321;DHT22;11328;53.928;18.522;2023-08-24T08:37:11;23.90;99.90
22321;DHT22;11328;53.928;18.522;2023-08-24T08:39:38;24.30;99.90
22321;DHT22;11328;53.928;18.522;2023-08-24T08:42:11;24.50;99.90
22321;DHT22;11328;53.928;18.522;2023-08-24T08:44:42;24.80;99.90
22321;DHT22;11328;53.928;18.522;2023-08-24T08:47:13;24.60;99.90
22321;DHT22;11328;53.928;18.522;2023-08-24T08:49:45;24.60;99.90
22321;DHT22;11328;53.928;18.522;2023-08-24T08:52:14;24.70;99.90
22321;DHT22;11328;53.928;18.522;2023-08-24T08:54:41;25.00;99.90
22321;DHT22;11328;53.928;18.522;2023-08-24T08:57:09;24.90;99.90
22321;DHT22;11328;53.928;18.522;2023-08-24T08:59:36;24.90;99.90
22321;DHT22;11328;53.928;18.522;2023-08-24T09:02:04;24.70;99.90
22321;DHT22;11328;53.928;18.522;2023-08-24T09:04:33;24.60;99.90
22321;DHT22;11328;53.928;18.522;2023-08-24T09:07:00;25.00;99.90
22321;DHT22;11328;53.928;18.522;2023-08-24T09:09:30;25.20;99.90
22321;DHT22;11328;53.928;18.522;2023-08-24T09:11:59;25.20;99.90
22321;DHT22;11328;53.928;18.522;2023-08-24T09:14:26;25.30;99.90
22321;DHT22;11328;53.928;18.522;2023-08-24T09:16:53;25.20;99.90
22321;DHT22;11328;53.928;18.522;2023-08-24T09:19:30;25.20;99.90
22321;DHT22;11328;53.928;18.522;2023-08-24T09:22:01;25.30;99.90
22321;DHT22;11328;53.928;18.522;2023-08-24T09:24:34;25.30;99.90
22321;DHT22;11328;53.928;18.522;2023-08-24T09:27:16;25.30;99.90
22321;DHT22;11328;53.928;18.522;2023-08-24T09:29:51;25.20;99.90
22321;DHT22;11328;53.928;18.522;2023-08-24T09:32:27;25.10;99.90
22321;DHT22;11328;53.928;18.522;2023-08-24T09:34:55;25.00;99.90
22321;DHT22;11328;53.928;18.522;2023-08-24T09:37:22;25.00;99.90
22321;DHT22;11328;53.928;18.522;2023-08-24T09:40:01;25.20;99.90
22321;DHT22;11328;53.928;18.522;2023-08-24T09:42:38;25.40;99.90
22321;DHT22;11328;53.928;18.522;2023-08-24T09:45:12;25.40;99.90
22321;DHT22;11328;53.928;18.522;2023-08-24T09:47:44;25.50;99.90
22321;DHT22;11328;53.928;18.522;2023-08-24T09:50:12;25.40;99.90
22321;DHT22;11328;53.928;18.522;2023-08-24T09:52:42;25.40;99.90
22321;DHT22;11328;53.928;18.522;2023-08-24T09:55:11;25.60;99.90
22321;DHT22;11328;53.928;18.522;2023-08-24T09:57:42;25.90;99.90
22321;DHT22;11328;53.928;18.522;2023-08-24T10:00:10;26.20;99.90
22321;DHT22;11328;53.928;18.522;2023-08-24T10:02:49;26.20;99.90
22321;DHT22;11328;53.928;18.522;2023-08-24T10:05:20;26.40;99.90
22321;DHT22;11328;53.928;18.522;2023-08-24T10:07:53;26.50;99.90
22321;DHT22;11328;53.928;18.522;2023-08-24T10:10:25;26.30;99.90
22321;DHT22;11328;53.928;18.522;2023-08-24T10:12:59;26.20;99.90
22321;DHT22;11328;53.928;18.522;2023-08-24T10:15:31;26.50;99.90
22321;DHT22;11328;53.928;18.522;2023-08-24T10:18:01;26.60;99.90
22321;DHT22;11328;53.928;18.522;2023-08-24T10:20:29;26.50;99.90
22321;DHT22;11328;53.928;18.522;2023-08-24T10:22:57;26.60;99.90
22321;DHT22;11328;53.928;18.522;2023-08-24T10:25:29;27.00;99.90
22321;DHT22;11328;53.928;18.522;2023-08-24T11:30:42;25.50;99.90
22321;DHT22;11328;53.928;18.522;2023-08-24T11:33:11;26.40;99.90
22321;DHT22;11328;53.928;18.522;2023-08-24T11:35:44;26.70;99.90
22321;DHT22;11328;53.928;18.522;2023-08-24T11:38:12;26.80;99.90
22321;DHT22;11328;53.928;18.522;2023-08-24T11:40:39;26.60;99.90
22321;DHT22;11328;53.928;18.522;2023-08-24T11:43:06;26.70;99.90
22321;DHT22;11328;53.928;18.522;2023-08-24T11:45:35;26.70;99.90
22321;DHT22;11328;53.928;18.522;2023-08-24T11:48:04;26.60;99.90
22321;DHT22;11328;53.928;18.522;2023-08-24T11:50:32;26.60;99.90
22321;DHT22;11328;53.928;18.522;2023-08-24T11:53:01;26.50;99.90
22321;DHT22;11328;53.928;18.522;2023-08-24T11:55:29;26.50;99.90
22321;DHT22;11328;53.928;18.522;2023-08-24T11:57:56;26.50;99.90
22321;DHT22;11328;53.928;18.522;2023-08-24T12:00:24;26.50;99.90
22321;DHT22;11328;53.928;18.522;2023-08-24T12:02:51;26.40;99.90
22321;DHT22;11328;53.928;18.522;2023-08-24T12:05:23;26.30;99.90
22321;DHT22;11328;53.928;18.522;2023-08-24T12:07:52;26.30;99.90
22321;DHT22;11328;53.928;18.522;2023-08-24T12:10:21;26.50;99.90
22321;DHT22;11328;53.928;18.522;2023-08-24T12:12:48;26.70;99.90
22321;DHT22;11328;53.928;18.522;2023-08-24T12:15:19;26.70;99.90
22321;DHT22;11328;53.928;18.522;2023-08-24T12:17:47;26.60;99.90
22321;DHT22;11328;53.928;18.522;2023-08-24T12:20:20;26.30;99.90
22321;DHT22;11328;53.928;18.522;2023-08-24T12:22:55;26.20;99.90
22321;DHT22;11328;53.928;18.522;2023-08-24T12:25:22;26.30;99.90
22321;DHT22;11328;53.928;18.522;2023-08-24T12:28:08;26.50;99.90
22321;DHT22;11328;53.928;18.522;2023-08-24T12:30:47;26.70;99.90
22321;DHT22;11328;53.928;18.522;2023-08-24T12:33:23;26.40;99.90
22321;DHT22;11328;53.928;18.522;2023-08-24T12:35:58;26.50;99.90
22321;DHT22;11328;53.928;18.522;2023-08-24T12:38:26;26.30;99.90
22321;DHT22;11328;53.928;18.522;2023-08-24T12:40:54;26.20;99.90
22321;DHT22;11328;53.928;18.522;2023-08-24T12:43:21;26.00;99.90
22321;DHT22;11328;53.928;18.522;2023-08-24T12:45:48;25.90;99.90
22321;DHT22;11328;53.928;18.522;2023-08-24T12:48:15;25.90;99.90
22321;DHT22;11328;53.928;18.522;2023-08-24T12:50:43;26.00;99.90
22321;DHT22;11328;53.928;18.522;2023-08-24T12:53:10;26.20;99.90
22321;DHT22;11328;53.928;18.522;2023-08-24T12:55:39;26.30;99.90
22321;DHT22;11328;53.928;18.522;2023-08-24T12:58:09;26.40;99.90
22321;DHT22;11328;53.928;18.522;2023-08-24T13:00:36;26.60;99.90
22321;DHT22;11328;53.928;18.522;2023-08-24T13:03:04;26.80;99.90
22321;DHT22;11328;53.928;18.522;2023-08-24T13:05:31;26.80;99.90
22321;DHT22;11328;53.928;18.522;2023-08-24T13:08:00;26.90;99.90
22321;DHT22;11328;53.928;18.522;2023-08-24T13:10:27;27.00;99.90
22321;DHT22;11328;53.928;18.522;2023-08-24T13:12:55;27.00;99.90
22321;DHT22;11328;53.928;18.522;2023-08-24T13:15:23;27.20;99.90
22321;DHT22;11328;53.928;18.522;2023-08-24T13:17:50;27.40;99.90
22321;DHT22;11328;53.928;18.522;2023-08-24T13:20:18;27.30;99.90
22321;DHT22;11328;53.928;18.522;2023-08-24T13:22:45;27.50;99.90
22321;DHT22;11328;53.928;18.522;2023-08-24T13:25:12;27.60;99.90
22321;DHT22;11328;53.928;18.522;2023-08-24T13:27:39;27.20;99.90
22321;DHT22;11328;53.928;18.522;2023-08-24T13:30:07;27.10;99.90
22321;DHT22;11328;53.928;18.522;2023-08-24T13:32:34;26.90;99.90
22321;DHT22;11328;53.928;18.522;2023-08-24T13:35:02;26.80;99.90
22321;DHT22;11328;53.928;18.522;2023-08-24T13:37:30;27.00;99.90
22321;DHT22;11328;53.928;18.522;2023-08-24T13:40:00;26.90;99.90
22321;DHT22;11328;53.928;18.522;2023-08-24T13:42:27;26.80;99.90
22321;DHT22;11328;53.928;18.522;2023-08-24T13:44:54;26.50;99.90
22321;DHT22;11328;53.928;18.522;2023-08-24T13:47:22;26.20;99.90
22321;DHT22;11328;53.928;18.522;2023-08-24T13:49:49;26.30;99.90
22321;DHT22;11328;53.928;18.522;2023-08-24T13:52:17;26.40;99.90
22321;DHT22;11328;53.928;18.522;2023-08-24T13:54:45;26.30;99.90
22321;DHT22;11328;53.928;18.522;2023-08-24T13:57:32;26.30;99.90
22321;DHT22;11328;53.928;18.522;2023-08-24T13:59:59;26.30;99.90
22321;DHT22;11328;53.928;18.522;2023-08-24T14:02:27;26.20;99.90
22321;DHT22;11328;53.928;18.522;2023-08-24T14:04:54;26.20;99.90
22321;DHT22;11328;53.928;18.522;2023-08-24T14:07:22;26.30;99.90
22321;DHT22;11328;53.928;18.522;2023-08-24T14:09:49;26.50;99.90
22321;DHT22;11328;53.928;18.522;2023-08-24T14:12:31;26.60;99.90
22321;DHT22;11328;53.928;18.522;2023-08-24T14:14:58;26.60;99.90
22321;DHT22;11328;53.928;18.522;2023-08-24T14:17:25;26.70;99.90
22321;DHT22;11328;53.928;18.522;2023-08-24T14:19:52;26.70;99.90
22321;DHT22;11328;53.928;18.522;2023-08-24T14:22:19;26.70;99.90
22321;DHT22;11328;53.928;18.522;2023-08-24T14:24:46;26.80;99.90
22321;DHT22;11328;53.928;18.522;2023-08-24T14:27:13;26.80;99.90
22321;DHT22;11328;53.928;18.522;2023-08-24T14:29:40;26.80;99.90
22321;DHT22;11328;53.928;18.522;2023-08-24T14:32:07;26.80;99.90
22321;DHT22;11328;53.928;18.522;2023-08-24T14:34:35;26.80;99.90
22321;DHT22;11328;53.928;18.522;2023-08-24T14:37:02;26.90;99.90
22321;DHT22;11328;53.928;18.522;2023-08-24T14:39:30;26.80;99.90
22321;DHT22;11328;53.928;18.522;2023-08-24T14:41:57;26.80;99.90
22321;DHT22;11328;53.928;18.522;2023-08-24T14:44:24;26.80;99.90
22321;DHT22;11328;53.928;18.522;2023-08-24T14:46:52;26.90;99.90
22321;DHT22;11328;53.928;18.522;2023-08-24T14:49:19;26.90;99.90
22321;DHT22;11328;53.928;18.522;2023-08-24T14:51:46;27.00;99.90
22321;DHT22;11328;53.928;18.522;2023-08-24T14:54:14;27.00;99.90
22321;DHT22;11328;53.928;18.522;2023-08-24T14:56:41;27.20;99.90
22321;DHT22;11328;53.928;18.522;2023-08-24T14:59:09;27.20;99.90
22321;DHT22;11328;53.928;18.522;2023-08-24T15:01:36;27.30;99.90
22321;DHT22;11328;53.928;18.522;2023-08-24T15:04:03;27.30;99.90
22321;DHT22;11328;53.928;18.522;2023-08-24T15:06:30;27.30;99.90
22321;DHT22;11328;53.928;18.522;2023-08-24T15:08:58;27.30;99.90
22321;DHT22;11328;53.928;18.522;2023-08-24T15:11:26;27.20;99.90
22321;DHT22;11328;53.928;18.522;2023-08-24T15:13:53;27.10;99.90
22321;DHT22;11328;53.928;18.522;2023-08-24T15:16:20;26.90;99.90
22321;DHT22;11328;53.928;18.522;2023-08-24T15:18:47;26.90;99.90
22321;DHT22;11328;53.928;18.522;2023-08-24T15:21:14;26.90;99.90
22321;DHT22;11328;53.928;18.522;2023-08-24T15:23:42;27.00;99.90
22321;DHT22;11328;53.928;18.522;2023-08-24T15:26:09;27.00;99.90
22321;DHT22;11328;53.928;18.522;2023-08-24T15:31:36;27.20;99.90
22321;DHT22;11328;53.928;18.522;2023-08-24T15:34:03;27.20;99.90
22321;DHT22;11328;53.928;18.522;2023-08-24T15:36:32;27.10;99.90
22321;DHT22;11328;53.928;18.522;2023-08-24T15:38:59;27.40;99.90
22321;DHT22;11328;53.928;18.522;2023-08-24T15:41:27;27.40;99.90
22321;DHT22;11328;53.928;18.522;2023-08-24T15:43:54;27.60;99.90
22321;DHT22;11328;53.928;18.522;2023-08-24T15:46:21;27.50;99.90
22321;DHT22;11328;53.928;18.522;2023-08-24T15:48:48;27.70;99.90
22321;DHT22;11328;53.928;18.522;2023-08-24T15:51:17;27.80;99.90
22321;DHT22;11328;53.928;18.522;2023-08-24T15:53:44;27.80;99.90
22321;DHT22;11328;53.928;18.522;2023-08-24T15:56:12;27.60;99.90
22321;DHT22;11328;53.928;18.522;2023-08-24T15:58:39;27.60;99.90
22321;DHT22;11328;53.928;18.522;2023-08-24T16:01:06;27.50;99.90
22321;DHT22;11328;53.928;18.522;2023-08-24T16:03:33;27.50;99.90
22321;DHT22;11328;53.928;18.522;2023-08-24T16:06:00;27.50;99.90
22321;DHT22;11328;53.928;18.522;2023-08-24T16:08:27;27.40;99.90
22321;DHT22;11328;53.928;18.522;2023-08-24T16:10:57;27.40;99.90
22321;DHT22;11328;53.928;18.522;2023-08-24T16:13:25;27.30;99.90
22321;DHT22;11328;53.928;18.522;2023-08-24T16:15:52;27.20;99.90
22321;DHT22;11328;53.928;18.522;2023-08-24T16:18:23;27.20;99.90
22321;DHT22;11328;53.928;18.522;2023-08-24T16:20:52;27.30;99.90
22321;DHT22;11328;53.928;18.522;2023-08-24T16:23:19;27.20;99.90
22321;DHT22;11328;53.928;18.522;2023-08-24T16:25:48;27.20;99.90
22321;DHT22;11328;53.928;18.522;2023-08-24T16:28:15;27.30;99.90
22321;DHT22;11328;53.928;18.522;2023-08-24T16:30:46;27.30;99.90
22321;DHT22;11328;53.928;18.522;2023-08-24T16:33:17;27.30;99.90
22321;DHT22;11328;53.928;18.522;2023-08-24T16:35:47;27.30;99.90